Time;durP1;ratioP1;P1;durP2;ratioP2;P2;SDS_P1;SDS_P2;PMS_P1;PMS_P2;Temp;Humidity;BMP_temperature;BMP_pressure;BME280_temperature;BME280_humidity;BME280_pressure;Samples;Min_cycle;Max_cycle;Signal;HPM_P1;HPM_P2
2023/10/25 00:00:53;;;;;;;4.18;3.28;;;;;;;;;;5031243;28;20183;-44
2023/10/25 00:03:19;;;;;;;3.80;3.08;;;;;;;;;;5031417;28;20234;-43
2023/10/25 00:05:46;;;;;;;4.40;3.50;;;;;;;;;;5032350;28;20246;-43
2023/10/25 00:08:12;;;;;;;4.13;3.45;;;;;;;;;;5028241;28;20194;-43
2023/10/25 00:10:38;;;;;;;4.47;3.00;;;;;;;;;;5024777;28;20192;-43
2023/10/25 00:13:04;;;;;;;3.95;3.35;;;;;;;;;;5030464;28;20567;-43
2023/10/25 00:15:31;;;;;;;2.80;2.53;;;;;;;;;;5028034;28;20208;-43
2023/10/25 00:17:57;;;;;;;2.92;2.70;;;;;;;;;;5031530;28;20657;-44
2023/10/25 00:20:23;;;;;;;3.22;3.00;;;;;;;;;;5026395;28;20199;-43
2023/10/25 00:22:49;;;;;;;2.80;2.47;;;;;;;;;;5030950;28;20172;-44
2023/10/25 00:25:15;;;;;;;2.72;2.47;;;;;;;;;;5021489;28;20459;-44
2023/10/25 00:27:40;;;;;;;3.15;2.85;;;;;;;;;;5026725;28;20262;-44
2023/10/25 00:30:07;;;;;;;3.13;2.83;;;;;;;;;;5023220;28;20613;-44
2023/10/25 00:32:33;;;;;;;2.60;2.40;;;;;;;;;;5028851;28;20180;-44
2023/10/25 00:34:58;;;;;;;3.63;3.00;;;;;;;;;;5029868;28;20218;-45
2023/10/25 00:37:25;;;;;;;3.22;2.95;;;;;;;;;;5030626;28;20194;-43
2023/10/25 00:39:50;;;;;;;2.53;2.33;;;;;;;;;;5025795;28;20187;-44
2023/10/25 00:42:16;;;;;;;3.03;2.72;;;;;;;;;;5030252;28;20187;-44
2023/10/25 00:44:45;;;;;;;2.78;2.58;;;;;;;;;;5027364;28;20280;-44
2023/10/25 00:47:11;;;;;;;2.80;2.60;;;;;;;;;;5032003;28;20180;-43
2023/10/25 00:49:37;;;;;;;2.60;2.40;;;;;;;;;;5022555;28;20461;-43
2023/10/25 00:52:03;;;;;;;3.95;2.47;;;;;;;;;;5036082;28;20187;-43
2023/10/25 00:54:29;;;;;;;3.67;2.65;;;;;;;;;;5028326;28;20216;-44
2023/10/25 00:56:56;;;;;;;2.78;2.47;;;;;;;;;;5029272;28;20176;-44
2023/10/25 00:59:22;;;;;;;2.70;2.50;;;;;;;;;;5031136;28;20180;-44
2023/10/25 01:01:48;;;;;;;3.05;2.75;;;;;;;;;;5033611;28;20196;-44
2023/10/25 01:04:14;;;;;;;2.85;2.60;;;;;;;;;;5030952;28;20201;-43
2023/10/25 01:06:40;;;;;;;2.53;2.33;;;;;;;;;;5033174;28;20188;-43
2023/10/25 01:09:06;;;;;;;2.33;2.13;;;;;;;;;;5027921;28;20198;-43
2023/10/25 01:11:32;;;;;;;3.13;2.80;;;;;;;;;;5030145;28;20225;-44
2023/10/25 01:13:58;;;;;;;2.90;2.58;;;;;;;;;;5034618;28;20538;-44
2023/10/25 01:16:24;;;;;;;2.55;2.35;;;;;;;;;;5032192;28;20271;-43
2023/10/25 01:18:50;;;;;;;2.28;2.00;;;;;;;;;;5035095;28;20496;-43
2023/10/25 01:21:16;;;;;;;2.63;2.42;;;;;;;;;;5027577;28;20184;-43
2023/10/25 01:23:42;;;;;;;2.85;2.45;;;;;;;;;;5027291;28;20195;-43
2023/10/25 01:26:08;;;;;;;2.15;1.95;;;;;;;;;;5032991;28;20591;-43
2023/10/25 01:28:34;;;;;;;2.40;2.20;;;;;;;;;;5030560;28;20267;-43
2023/10/25 01:31:00;;;;;;;2.47;2.28;;;;;;;;;;5024388;28;20180;-43
2023/10/25 01:33:26;;;;;;;2.35;2.13;;;;;;;;;;5031111;28;20184;-44
2023/10/25 01:35:52;;;;;;;2.70;2.30;;;;;;;;;;5029766;28;20176;-44
2023/10/25 01:38:18;;;;;;;2.20;2.00;;;;;;;;;;5034053;28;20186;-44
2023/10/25 01:40:44;;;;;;;1.80;1.67;;;;;;;;;;5033711;28;20239;-44
2023/10/25 01:43:10;;;;;;;2.33;2.13;;;;;;;;;;5021863;28;20189;-44
2023/10/25 01:45:36;;;;;;;2.10;1.83;;;;;;;;;;5034065;28;20183;-44
2023/10/25 01:48:02;;;;;;;2.20;2.00;;;;;;;;;;5032617;28;20218;-44
2023/10/25 01:50:28;;;;;;;2.30;2.10;;;;;;;;;;5032924;28;20180;-44
2023/10/25 01:52:54;;;;;;;1.98;1.88;;;;;;;;;;5028642;28;20578;-44
2023/10/25 01:55:19;;;;;;;2.47;2.10;;;;;;;;;;5027175;28;20211;-44
2023/10/25 01:57:45;;;;;;;2.10;1.90;;;;;;;;;;5033748;28;20295;-44
2023/10/25 02:00:12;;;;;;;2.08;1.88;;;;;;;;;;5025388;28;20274;-44
2023/10/25 02:02:38;;;;;;;1.98;1.88;;;;;;;;;;5033021;28;20486;-44
2023/10/25 02:05:04;;;;;;;1.88;1.77;;;;;;;;;;5024168;28;20187;-45
2023/10/25 02:07:30;;;;;;;1.80;1.70;;;;;;;;;;5027889;28;20196;-44
2023/10/25 02:09:56;;;;;;;1.80;1.70;;;;;;;;;;5025064;28;20195;-44
2023/10/25 02:12:21;;;;;;;2.80;1.80;;;;;;;;;;5031496;28;20180;-44
2023/10/25 02:14:47;;;;;;;1.80;1.70;;;;;;;;;;5026140;28;20551;-44
2023/10/25 02:17:14;;;;;;;1.95;1.77;;;;;;;;;;5032772;28;20183;-44
2023/10/25 02:19:40;;;;;;;2.38;1.80;;;;;;;;;;5029444;28;20176;-44
2023/10/25 02:22:06;;;;;;;1.67;1.58;;;;;;;;;;5033801;28;20202;-44
2023/10/25 02:24:32;;;;;;;1.45;1.35;;;;;;;;;;5032327;28;20555;-44
2023/10/25 02:26:58;;;;;;;7.20;1.83;;;;;;;;;;5033223;28;20180;-44
2023/10/25 02:29:24;;;;;;;1.67;1.58;;;;;;;;;;5027888;28;20191;-44
2023/10/25 02:31:50;;;;;;;1.83;1.70;;;;;;;;;;5028243;28;20203;-44
2023/10/25 02:34:16;;;;;;;1.90;1.80;;;;;;;;;;5028483;28;20207;-44
2023/10/25 02:36:42;;;;;;;1.90;1.80;;;;;;;;;;5025139;28;20181;-44
2023/10/25 02:39:09;;;;;;;1.83;1.60;;;;;;;;;;5030264;28;20175;-44
2023/10/25 02:41:35;;;;;;;1.67;1.58;;;;;;;;;;5028193;28;20219;-44
2023/10/25 02:44:01;;;;;;;2.00;1.80;;;;;;;;;;5029746;28;20221;-44
2023/10/25 02:46:27;;;;;;;1.95;1.63;;;;;;;;;;5029610;28;20187;-44
2023/10/25 02:48:53;;;;;;;1.50;1.40;;;;;;;;;;5023623;28;20185;-45
2023/10/25 02:51:19;;;;;;;1.80;1.70;;;;;;;;;;5023044;28;20602;-44
2023/10/25 02:53:45;;;;;;;1.67;1.50;;;;;;;;;;5030972;28;21518;-44
2023/10/25 02:56:11;;;;;;;2.05;1.88;;;;;;;;;;5029635;28;20199;-44
2023/10/25 02:58:37;;;;;;;1.65;1.55;;;;;;;;;;5030057;28;20523;-44
2023/10/25 03:01:03;;;;;;;1.70;1.60;;;;;;;;;;5022867;28;20250;-44
2023/10/25 03:03:33;;;;;;;2.40;1.90;;;;;;;;;;5026196;28;20476;-44
2023/10/25 03:05:59;;;;;;;2.65;2.00;;;;;;;;;;5033250;28;20191;-44
2023/10/25 03:08:26;;;;;;;1.85;1.75;;;;;;;;;;5030181;28;20192;-44
2023/10/25 03:10:52;;;;;;;2.42;1.60;;;;;;;;;;5029189;28;20237;-44
2023/10/25 03:13:18;;;;;;;1.70;1.55;;;;;;;;;;5029203;28;20621;-44
2023/10/25 03:15:44;;;;;;;1.40;1.30;;;;;;;;;;5027255;28;20211;-44
2023/10/25 03:18:10;;;;;;;1.90;1.80;;;;;;;;;;5026110;28;20551;-44
2023/10/25 03:20:36;;;;;;;1.70;1.60;;;;;;;;;;5029026;28;20183;-44
2023/10/25 03:23:02;;;;;;;1.75;1.65;;;;;;;;;;5032564;28;20190;-43
2023/10/25 03:25:28;;;;;;;1.40;1.30;;;;;;;;;;5030919;28;20195;-44
2023/10/25 03:27:54;;;;;;;12.95;1.80;;;;;;;;;;5025201;28;20228;-44
2023/10/25 03:30:20;;;;;;;1.77;1.67;;;;;;;;;;5028997;28;20184;-39
2023/10/25 03:32:46;;;;;;;2.25;1.60;;;;;;;;;;5026295;28;20196;-41
2023/10/25 03:35:12;;;;;;;3.25;2.00;;;;;;;;;;5028747;28;20210;-41
2023/10/25 03:37:41;;;;;;;4.80;1.85;;;;;;;;;;5030785;28;20718;-41
2023/10/25 03:40:08;;;;;;;3.40;1.88;;;;;;;;;;5030383;28;20208;-41
2023/10/25 03:42:35;;;;;;;2.67;1.52;;;;;;;;;;5030060;28;20210;-41
2023/10/25 03:45:01;;;;;;;3.70;2.00;;;;;;;;;;5030224;28;20579;-41
2023/10/25 03:47:27;;;;;;;5.30;1.90;;;;;;;;;;5033456;28;20261;-41
2023/10/25 03:49:53;;;;;;;3.47;1.73;;;;;;;;;;5028324;28;20212;-42
2023/10/25 03:52:19;;;;;;;9.60;2.53;;;;;;;;;;5031349;28;20242;-46
2023/10/25 03:54:45;;;;;;;12.80;4.07;;;;;;;;;;5030184;28;20246;-44
2023/10/25 03:57:11;;;;;;;15.75;5.05;;;;;;;;;;5030019;28;20211;-44
2023/10/25 03:59:37;;;;;;;13.77;4.35;;;;;;;;;;5025711;28;20188;-44
2023/10/25 04:02:03;;;;;;;7.97;3.70;;;;;;;;;;5024668;28;20564;-44
2023/10/25 04:04:29;;;;;;;8.65;3.50;;;;;;;;;;5032031;28;20197;-44
2023/10/25 04:06:56;;;;;;;8.05;2.83;;;;;;;;;;5033398;28;20597;-44
2023/10/25 04:09:22;;;;;;;10.82;3.10;;;;;;;;;;5030476;28;20481;-44
2023/10/25 04:11:48;;;;;;;5.93;2.83;;;;;;;;;;5031002;28;20179;-44
2023/10/25 04:14:14;;;;;;;4.85;2.05;;;;;;;;;;5028153;28;20244;-45
2023/10/25 04:16:40;;;;;;;7.22;2.40;;;;;;;;;;5030768;28;20184;-44
2023/10/25 04:19:06;;;;;;;3.65;2.35;;;;;;;;;;5025270;28;20187;-44
2023/10/25 04:21:32;;;;;;;5.30;1.90;;;;;;;;;;5032698;28;20225;-44
2023/10/25 04:23:58;;;;;;;6.97;2.00;;;;;;;;;;5034024;28;20225;-44
2023/10/25 04:26:24;;;;;;;2.97;1.58;;;;;;;;;;5024727;28;20451;-44
2023/10/25 04:28:50;;;;;;;3.17;1.35;;;;;;;;;;5035170;28;20192;-44
2023/10/25 04:31:17;;;;;;;2.22;1.63;;;;;;;;;;5030576;28;20180;-44
2023/10/25 04:33:45;;;;;;;3.80;1.60;;;;;;;;;;5030033;28;20555;-44
2023/10/25 04:36:11;;;;;;;4.85;1.70;;;;;;;;;;5035443;28;20287;-44
2023/10/25 04:38:37;;;;;;;4.88;1.65;;;;;;;;;;5037259;28;20262;-44
2023/10/25 04:41:03;;;;;;;1.60;1.50;;;;;;;;;;5035453;28;20180;-44
2023/10/25 04:43:29;;;;;;;1.70;1.60;;;;;;;;;;5037161;28;20438;-44
2023/10/25 04:45:55;;;;;;;3.40;1.70;;;;;;;;;;5036266;28;20262;-44
2023/10/25 04:48:20;;;;;;;5.13;1.95;;;;;;;;;;5033703;28;20263;-44
2023/10/25 04:50:46;;;;;;;2.65;1.98;;;;;;;;;;5033206;28;20259;-44
2023/10/25 04:53:12;;;;;;;3.08;2.20;;;;;;;;;;5036250;28;20187;-44
2023/10/25 04:55:38;;;;;;;4.70;1.98;;;;;;;;;;5031853;28;20218;-44
2023/10/25 04:58:05;;;;;;;2.85;2.08;;;;;;;;;;5031319;28;20220;-44
2023/10/25 05:00:31;;;;;;;2.75;1.92;;;;;;;;;;5024066;28;20220;-44
2023/10/25 05:02:58;;;;;;;2.65;1.80;;;;;;;;;;5024867;28;20180;-44
2023/10/25 05:05:24;;;;;;;2.55;1.92;;;;;;;;;;5030425;28;20590;-44
2023/10/25 05:07:51;;;;;;;3.55;1.95;;;;;;;;;;5028486;28;20630;-44
2023/10/25 05:10:17;;;;;;;2.13;1.67;;;;;;;;;;5031685;28;20234;-45
2023/10/25 05:12:46;;;;;;;1.60;1.50;;;;;;;;;;5035224;28;20706;-44
2023/10/25 05:15:16;;;;;;;2.05;1.90;;;;;;;;;;5031293;28;20208;-44
2023/10/25 05:17:43;;;;;;;4.20;1.80;;;;;;;;;;5029023;28;20552;-44
2023/10/25 05:20:10;;;;;;;2.30;1.52;;;;;;;;;;5030301;28;20493;-44
2023/10/25 05:22:37;;;;;;;2.92;1.67;;;;;;;;;;5022729;28;20259;-44
2023/10/25 05:25:07;;;;;;;1.58;1.48;;;;;;;;;;5035007;28;20266;-44
2023/10/25 05:27:33;;;;;;;1.75;1.65;;;;;;;;;;5035244;28;20176;-44
2023/10/25 05:30:03;;;;;;;2.20;2.00;;;;;;;;;;5029170;28;20177;-45
2023/10/25 05:32:30;;;;;;;4.40;2.00;;;;;;;;;;5035890;28;20206;-44
2023/10/25 05:34:56;;;;;;;1.80;1.70;;;;;;;;;;5020882;28;20204;-44
2023/10/25 05:37:22;;;;;;;2.20;1.98;;;;;;;;;;5032913;28;20187;-44
2023/10/25 05:39:48;;;;;;;2.35;1.50;;;;;;;;;;5030385;28;20191;-44
2023/10/25 05:42:17;;;;;;;2.05;1.83;;;;;;;;;;5028993;28;20585;-44
2023/10/25 05:44:44;;;;;;;1.80;1.70;;;;;;;;;;5033667;28;20452;-44
2023/10/25 05:47:09;;;;;;;2.38;2.17;;;;;;;;;;5031109;28;20207;-45
2023/10/25 05:49:35;;;;;;;2.60;2.40;;;;;;;;;;5025926;28;20200;-44
2023/10/25 05:52:01;;;;;;;2.10;1.85;;;;;;;;;;5032459;28;20461;-44
2023/10/25 05:54:28;;;;;;;2.50;2.13;;;;;;;;;;5020998;28;20609;-45
2023/10/25 05:56:54;;;;;;;2.00;1.80;;;;;;;;;;5034202;28;20270;-44
2023/10/25 05:59:20;;;;;;;2.35;1.52;;;;;;;;;;5025417;28;20202;-44
2023/10/25 06:01:48;;;;;;;3.67;1.90;;;;;;;;;;5027682;28;20258;-45
2023/10/25 06:04:14;;;;;;;2.53;1.63;;;;;;;;;;5028131;28;20184;-44
2023/10/25 06:06:42;;;;;;;1.95;1.65;;;;;;;;;;5035070;28;20211;-44
2023/10/25 06:09:08;;;;;;;1.42;1.33;;;;;;;;;;5025638;28;20196;-44
2023/10/25 06:11:34;;;;;;;1.60;1.50;;;;;;;;;;5033791;28;20182;-44
2023/10/25 06:14:00;;;;;;;2.83;2.05;;;;;;;;;;5032241;28;20333;-44
2023/10/25 06:16:26;;;;;;;2.13;1.73;;;;;;;;;;5034558;28;20188;-44
2023/10/25 06:18:52;;;;;;;1.63;1.52;;;;;;;;;;5031118;28;20187;-44
2023/10/25 06:21:18;;;;;;;2.67;2.10;;;;;;;;;;5029275;28;20703;-44
2023/10/25 06:23:44;;;;;;;1.77;1.67;;;;;;;;;;5031248;28;20203;-44
2023/10/25 06:26:10;;;;;;;2.30;2.10;;;;;;;;;;5031771;28;20525;-44
2023/10/25 06:28:36;;;;;;;2.17;1.98;;;;;;;;;;5030712;28;20641;-44
2023/10/25 06:31:02;;;;;;;2.38;2.00;;;;;;;;;;5026269;28;20187;-44
2023/10/25 06:33:28;;;;;;;2.55;1.77;;;;;;;;;;5032510;28;20250;-44
2023/10/25 06:35:59;;;;;;;1.60;1.50;;;;;;;;;;5024635;28;20225;-44
2023/10/25 06:38:26;;;;;;;2.00;1.80;;;;;;;;;;5022464;28;20183;-45
2023/10/25 06:40:52;;;;;;;2.42;2.22;;;;;;;;;;5029157;28;20168;-44
2023/10/25 06:43:18;;;;;;;1.75;1.65;;;;;;;;;;5031383;28;20440;-44
2023/10/25 06:45:46;;;;;;;2.10;1.90;;;;;;;;;;5024399;28;20199;-44
2023/10/25 06:48:12;;;;;;;2.70;1.67;;;;;;;;;;5028012;28;20179;-44
2023/10/25 06:50:38;;;;;;;2.20;2.00;;;;;;;;;;5029693;28;20266;-44
2023/10/25 06:53:04;;;;;;;1.88;1.75;;;;;;;;;;5022161;28;20276;-44
2023/10/25 06:55:30;;;;;;;2.25;1.85;;;;;;;;;;5030294;28;20199;-44
2023/10/25 06:57:56;;;;;;;1.80;1.70;;;;;;;;;;5028586;28;20274;-44
2023/10/25 07:00:22;;;;;;;2.05;1.88;;;;;;;;;;5022082;28;20670;-44
2023/10/25 07:02:52;;;;;;;2.40;2.20;;;;;;;;;;5030299;28;20262;-44
2023/10/25 07:05:23;;;;;;;2.75;2.00;;;;;;;;;;5033877;28;20220;-44
2023/10/25 07:07:50;;;;;;;2.50;2.30;;;;;;;;;;5026650;28;20183;-44
2023/10/25 07:10:16;;;;;;;2.40;2.20;;;;;;;;;;5027957;28;20602;-44
2023/10/25 07:12:42;;;;;;;2.50;2.30;;;;;;;;;;5028223;28;20186;-44
2023/10/25 07:15:08;;;;;;;5.97;2.10;;;;;;;;;;5027832;28;20207;-44
2023/10/25 07:17:34;;;;;;;2.15;1.95;;;;;;;;;;5027446;28;20223;-44
2023/10/25 07:20:01;;;;;;;2.15;1.92;;;;;;;;;;5034283;28;20179;-44
2023/10/25 07:22:27;;;;;;;3.05;2.15;;;;;;;;;;5031448;28;20356;-45
2023/10/25 07:24:53;;;;;;;2.88;2.55;;;;;;;;;;5031222;28;20547;-44
2023/10/25 07:27:19;;;;;;;2.35;2.15;;;;;;;;;;5029096;28;20207;-44
2023/10/25 07:29:45;;;;;;;2.60;2.38;;;;;;;;;;5026252;28;20190;-44
2023/10/25 07:32:11;;;;;;;3.33;2.70;;;;;;;;;;5031506;28;20191;-45
2023/10/25 07:34:37;;;;;;;2.95;2.63;;;;;;;;;;5029687;28;20275;-44
2023/10/25 07:37:04;;;;;;;4.30;3.20;;;;;;;;;;5029917;28;20255;-44
2023/10/25 07:39:30;;;;;;;3.38;3.00;;;;;;;;;;5030664;28;20261;-44
2023/10/25 07:41:56;;;;;;;2.90;2.60;;;;;;;;;;5027144;28;20212;-44
2023/10/25 07:44:22;;;;;;;2.53;2.30;;;;;;;;;;5030760;28;20196;-44
2023/10/25 07:46:47;;;;;;;2.55;2.30;;;;;;;;;;5023788;28;20614;-44
2023/10/25 07:49:13;;;;;;;1.92;1.80;;;;;;;;;;5025397;28;20184;-44
2023/10/25 07:51:39;;;;;;;2.67;2.47;;;;;;;;;;5029594;28;20215;-44
2023/10/25 07:54:05;;;;;;;4.75;2.42;;;;;;;;;;5032973;28;20204;-44
2023/10/25 07:56:31;;;;;;;2.40;2.13;;;;;;;;;;5025118;28;20176;-44
2023/10/25 07:58:58;;;;;;;3.00;2.60;;;;;;;;;;5024574;28;20246;-44
2023/10/25 08:01:24;;;;;;;2.38;2.00;;;;;;;;;;5029140;28;20198;-44
2023/10/25 08:03:50;;;;;;;2.10;1.90;;;;;;;;;;5029144;28;20180;-44
2023/10/25 08:06:17;;;;;;;2.78;1.90;;;;;;;;;;5036754;28;20211;-44
2023/10/25 08:08:43;;;;;;;1.85;1.75;;;;;;;;;;5031737;28;20172;-44
2023/10/25 08:11:09;;;;;;;2.10;2.00;;;;;;;;;;5020896;28;20195;-45
2023/10/25 08:13:38;;;;;;;2.63;2.42;;;;;;;;;;5029907;28;20176;-44
2023/10/25 08:16:04;;;;;;;2.72;1.75;;;;;;;;;;5028267;28;20192;-44
2023/10/25 08:18:31;;;;;;;3.25;2.20;;;;;;;;;;5023304;28;20214;-44
2023/10/25 08:20:57;;;;;;;1.90;1.80;;;;;;;;;;5027690;28;20518;-45
2023/10/25 08:23:23;;;;;;;2.15;2.03;;;;;;;;;;5025075;28;20299;-44
2023/10/25 08:25:51;;;;;;;2.47;2.05;;;;;;;;;;5023750;28;20453;-44
2023/10/25 08:28:17;;;;;;;2.05;1.85;;;;;;;;;;5033880;28;20171;-44
2023/10/25 08:30:42;;;;;;;1.90;1.80;;;;;;;;;;5027065;28;20188;-44
2023/10/25 08:33:08;;;;;;;1.85;1.70;;;;;;;;;;5021757;28;20199;-44
2023/10/25 08:35:34;;;;;;;1.52;1.27;;;;;;;;;;5023670;28;20234;-44
2023/10/25 08:38:00;;;;;;;2.03;1.40;;;;;;;;;;5033676;28;20461;-45
2023/10/25 08:40:26;;;;;;;1.50;1.40;;;;;;;;;;5036621;28;20175;-45
2023/10/25 08:42:53;;;;;;;1.60;1.50;;;;;;;;;;5025584;28;20585;-44
2023/10/25 08:45:19;;;;;;;1.90;1.70;;;;;;;;;;5025340;28;20203;-44
2023/10/25 08:47:45;;;;;;;3.45;2.00;;;;;;;;;;5030103;28;20178;-44
2023/10/25 08:50:19;;;;;;;2.00;1.75;;;;;;;;;;5028906;28;20183;-44
2023/10/25 08:52:45;;;;;;;1.88;1.50;;;;;;;;;;5024599;28;20230;-44
2023/10/25 08:55:11;;;;;;;1.38;1.27;;;;;;;;;;5034668;28;20203;-44
2023/10/25 08:57:38;;;;;;;4.82;1.98;;;;;;;;;;5021828;28;20192;-44
2023/10/25 09:00:07;;;;;;;1.60;1.50;;;;;;;;;;5026373;28;20193;-45
2023/10/25 09:02:36;;;;;;;2.30;1.80;;;;;;;;;;5030686;28;20187;-44
2023/10/25 09:05:03;;;;;;;2.33;1.80;;;;;;;;;;5025574;28;20172;-44
2023/10/25 09:07:34;;;;;;;1.70;1.60;;;;;;;;;;5029081;28;20179;-44
2023/10/25 09:10:00;;;;;;;1.50;1.40;;;;;;;;;;5025268;28;20180;-44
2023/10/25 09:12:26;;;;;;;1.35;1.25;;;;;;;;;;5030872;28;20573;-44
2023/10/25 09:14:53;;;;;;;0.75;0.75;;;;;;;;;;5030601;28;20254;-44
2023/10/25 09:17:19;;;;;;;1.63;1.30;;;;;;;;;;5030151;28;20233;-44
2023/10/25 09:19:45;;;;;;;1.92;1.02;;;;;;;;;;5031189;28;20180;-45
2023/10/25 09:22:27;;;;;;;1.15;0.90;;;;;;;;;;5031211;28;20488;-44
2023/10/25 09:24:58;;;;;;;2.45;1.00;;;;;;;;;;5028316;28;20222;-45
2023/10/25 09:27:24;;;;;;;1.08;1.00;;;;;;;;;;5034578;28;20176;-44
2023/10/25 09:29:50;;;;;;;1.30;1.20;;;;;;;;;;5033475;28;20445;-44
2023/10/25 09:32:20;;;;;;;1.10;1.00;;;;;;;;;;5031963;28;20433;-44
2023/10/25 09:34:47;;;;;;;1.92;1.45;;;;;;;;;;5030027;28;20643;-44
2023/10/25 09:37:13;;;;;;;2.33;2.08;;;;;;;;;;5031324;28;20178;-44
2023/10/25 09:39:39;;;;;;;2.20;1.88;;;;;;;;;;5031706;28;20172;-44
2023/10/25 09:42:06;;;;;;;1.95;1.45;;;;;;;;;;5031760;28;20222;-44
2023/10/25 09:44:51;;;;;;;2.92;1.73;;;;;;;;;;5027261;28;20183;-44
2023/10/25 09:47:17;;;;;;;2.05;1.38;;;;;;;;;;5027585;28;20408;-44
2023/10/25 09:49:44;;;;;;;1.23;1.13;;;;;;;;;;5022942;28;20509;-44
2023/10/25 09:52:17;;;;;;;1.15;0.90;;;;;;;;;;5029044;28;20198;-44
2023/10/25 09:54:48;;;;;;;1.67;1.02;;;;;;;;;;5030285;28;20199;-44
2023/10/25 09:57:14;;;;;;;2.38;1.45;;;;;;;;;;5025622;28;20304;-44
2023/10/25 09:59:41;;;;;;;1.45;0.88;;;;;;;;;;5021479;28;20200;-44
2023/10/25 10:02:08;;;;;;;2.33;1.10;;;;;;;;;;5023550;28;20232;-44
2023/10/25 10:04:41;;;;;;;1.52;1.08;;;;;;;;;;5023921;28;20180;-44
2023/10/25 10:07:30;;;;;;;3.22;1.50;;;;;;;;;;5022774;28;20195;-46
2023/10/25 10:10:15;;;;;;;3.33;1.35;;;;;;;;;;5020787;28;20196;-41
2023/10/25 10:12:41;;;;;;;3.33;1.45;;;;;;;;;;5020642;28;20183;-41
2023/10/25 10:15:07;;;;;;;2.13;1.10;;;;;;;;;;5019446;28;20939;-41
2023/10/25 10:17:36;;;;;;;4.70;1.23;;;;;;;;;;5022226;28;20177;-42
2023/10/25 10:20:05;;;;;;;3.53;1.23;;;;;;;;;;5025974;28;20179;-41
2023/10/25 10:22:31;;;;;;;2.35;1.50;;;;;;;;;;5024147;28;20287;-42
2023/10/25 10:25:00;;;;;;;1.60;1.27;;;;;;;;;;5027605;28;20270;-42
2023/10/25 10:27:41;;;;;;;1.30;1.20;;;;;;;;;;5025078;28;20176;-41
2023/10/25 10:30:26;;;;;;;2.47;1.10;;;;;;;;;;5028262;28;20194;-41
2023/10/25 10:32:55;;;;;;;5.38;1.27;;;;;;;;;;5016152;28;20255;-41
2023/10/25 10:35:24;;;;;;;3.95;1.40;;;;;;;;;;5027529;28;20476;-41
2023/10/25 10:37:54;;;;;;;1.30;1.20;;;;;;;;;;5024297;28;20186;-42
2023/10/25 10:40:20;;;;;;;1.08;0.98;;;;;;;;;;5030461;28;20194;-41
2023/10/25 10:42:46;;;;;;;1.35;1.00;;;;;;;;;;5032215;28;20551;-40
2023/10/25 10:45:19;;;;;;;2.47;0.90;;;;;;;;;;5029524;28;20182;-42
2023/10/25 10:47:48;;;;;;;0.82;0.70;;;;;;;;;;5027988;28;20196;-43
2023/10/25 10:50:15;;;;;;;2.38;0.80;;;;;;;;;;5033223;28;20195;-42
2023/10/25 10:52:42;;;;;;;4.00;0.70;;;;;;;;;;5027841;28;20184;-41
2023/10/25 10:55:08;;;;;;;1.65;0.80;;;;;;;;;;5033137;28;20459;-43
2023/10/25 10:57:37;;;;;;;0.95;0.90;;;;;;;;;;5028606;28;20184;-49
2023/10/25 11:00:05;;;;;;;1.30;0.70;;;;;;;;;;5033991;28;20210;-42
2023/10/25 11:02:31;;;;;;;1.05;0.65;;;;;;;;;;5029240;28;20634;-44
2023/10/25 11:04:58;;;;;;;2.00;0.82;;;;;;;;;;5033101;28;20196;-42
2023/10/25 11:07:24;;;;;;;0.70;0.70;;;;;;;;;;5032557;28;20187;-43
2023/10/25 11:09:54;;;;;;;1.00;0.90;;;;;;;;;;5030776;28;20188;-43
2023/10/25 11:12:20;;;;;;;1.38;0.90;;;;;;;;;;5020644;28;20182;-45
2023/10/25 11:14:48;;;;;;;3.67;1.15;;;;;;;;;;5023265;28;20219;-43
2023/10/25 11:17:14;;;;;;;1.30;0.93;;;;;;;;;;5028495;28;20234;-45
2023/10/25 11:19:40;;;;;;;6.43;1.25;;;;;;;;;;5026284;28;20264;-44
2023/10/25 11:22:06;;;;;;;7.47;0.98;;;;;;;;;;5023147;28;20570;-40
2023/10/25 11:24:35;;;;;;;2.60;1.30;;;;;;;;;;5030732;28;20924;-42
2023/10/25 11:27:02;;;;;;;2.92;1.10;;;;;;;;;;5021375;28;20562;-41
2023/10/25 11:29:28;;;;;;;3.35;0.93;;;;;;;;;;5028146;28;20217;-41
